sensor_id;sensor_type;location;lat;lon;timestamp;temperature;humidity
48206;DHT22;33995;48.202;16.260;2023-05-07T00:01:21;15.00;99.90
48206;DHT22;33995;48.202;16.260;2023-05-07T00:03:49;14.90;99.90
48206;DHT22;33995;48.202;16.260;2023-05-07T00:06:16;14.70;99.90
48206;DHT22;33995;48.202;16.260;2023-05-07T00:08:43;14.70;99.90
48206;DHT22;33995;48.202;16.260;2023-05-07T00:11:10;14.70;99.90
48206;DHT22;33995;48.202;16.260;2023-05-07T00:13:38;14.70;99.90
48206;DHT22;33995;48.202;16.260;2023-05-07T00:16:05;14.60;99.90
48206;DHT22;33995;48.202;16.260;2023-05-07T00:18:32;14.60;99.90
48206;DHT22;33995;48.202;16.260;2023-05-07T00:20:58;14.60;99.90
48206;DHT22;33995;48.202;16.260;2023-05-07T00:23:26;14.50;99.90
48206;DHT22;33995;48.202;16.260;2023-05-07T00:25:52;14.60;99.90
48206;DHT22;33995;48.202;16.260;2023-05-07T00:28:21;14.60;99.90
48206;DHT22;33995;48.202;16.260;2023-05-07T00:30:48;14.60;99.90
48206;DHT22;33995;48.202;16.260;2023-05-07T00:33:16;14.50;99.90
48206;DHT22;33995;48.202;16.260;2023-05-07T00:35:44;14.50;99.90
48206;DHT22;33995;48.202;16.260;2023-05-07T00:38:11;14.50;99.90
48206;DHT22;33995;48.202;16.260;2023-05-07T00:40:40;14.60;99.90
48206;DHT22;33995;48.202;16.260;2023-05-07T00:43:07;14.60;99.90
48206;DHT22;33995;48.202;16.260;2023-05-07T00:45:35;14.50;99.90
48206;DHT22;33995;48.202;16.260;2023-05-07T00:48:02;14.50;99.90
48206;DHT22;33995;48.202;16.260;2023-05-07T00:50:31;14.50;99.90
48206;DHT22;33995;48.202;16.260;2023-05-07T00:53:01;14.50;99.90
48206;DHT22;33995;48.202;16.260;2023-05-07T00:55:30;14.30;99.90
48206;DHT22;33995;48.202;16.260;2023-05-07T00:57:57;14.30;99.90
48206;DHT22;33995;48.202;16.260;2023-05-07T01:00:24;14.30;99.90
48206;DHT22;33995;48.202;16.260;2023-05-07T01:02:51;14.30;99.90
48206;DHT22;33995;48.202;16.260;2023-05-07T01:05:20;14.20;99.90
48206;DHT22;33995;48.202;16.260;2023-05-07T01:07:49;14.20;99.90
48206;DHT22;33995;48.202;16.260;2023-05-07T01:10:18;14.20;99.90
48206;DHT22;33995;48.202;16.260;2023-05-07T01:12:46;14.20;99.90
48206;DHT22;33995;48.202;16.260;2023-05-07T01:15:15;14.10;99.90
48206;DHT22;33995;48.202;16.260;2023-05-07T01:17:43;14.10;99.90
48206;DHT22;33995;48.202;16.260;2023-05-07T01:20:20;14.20;99.90
48206;DHT22;33995;48.202;16.260;2023-05-07T01:22:51;14.20;99.90
48206;DHT22;33995;48.202;16.260;2023-05-07T01:25:19;14.10;99.90
48206;DHT22;33995;48.202;16.260;2023-05-07T01:27:49;14.20;99.90
48206;DHT22;33995;48.202;16.260;2023-05-07T01:30:23;14.20;99.90
48206;DHT22;33995;48.202;16.260;2023-05-07T01:33:10;14.20;99.90
48206;DHT22;33995;48.202;16.260;2023-05-07T01:35:40;14.10;99.90
48206;DHT22;33995;48.202;16.260;2023-05-07T01:38:08;14.10;99.90
48206;DHT22;33995;48.202;16.260;2023-05-07T01:40:35;14.00;99.90
48206;DHT22;33995;48.202;16.260;2023-05-07T01:43:06;13.90;99.90
48206;DHT22;33995;48.202;16.260;2023-05-07T01:45:35;13.90;99.90
48206;DHT22;33995;48.202;16.260;2023-05-07T01:48:06;13.90;99.90
48206;DHT22;33995;48.202;16.260;2023-05-07T01:50:34;13.90;99.90
48206;DHT22;33995;48.202;16.260;2023-05-07T01:53:02;13.90;99.90
48206;DHT22;33995;48.202;16.260;2023-05-07T01:55:29;13.90;99.90
48206;DHT22;33995;48.202;16.260;2023-05-07T01:57:58;13.80;99.90
48206;DHT22;33995;48.202;16.260;2023-05-07T02:00:25;13.90;99.90
48206;DHT22;33995;48.202;16.260;2023-05-07T02:02:53;13.90;99.90
48206;DHT22;33995;48.202;16.260;2023-05-07T02:05:29;13.90;99.90
48206;DHT22;33995;48.202;16.260;2023-05-07T02:08:06;13.90;99.90
48206;DHT22;33995;48.202;16.260;2023-05-07T02:10:33;13.80;99.90
48206;DHT22;33995;48.202;16.260;2023-05-07T02:12:59;13.80;99.90
48206;DHT22;33995;48.202;16.260;2023-05-07T02:15:28;13.80;99.90
48206;DHT22;33995;48.202;16.260;2023-05-07T02:18:03;13.80;99.90
48206;DHT22;33995;48.202;16.260;2023-05-07T02:20:31;13.70;99.90
48206;DHT22;33995;48.202;16.260;2023-05-07T02:23:02;13.80;99.90
48206;DHT22;33995;48.202;16.260;2023-05-07T02:25:32;13.80;99.90
48206;DHT22;33995;48.202;16.260;2023-05-07T02:28:00;13.80;99.90
48206;DHT22;33995;48.202;16.260;2023-05-07T02:30:48;13.70;99.90
48206;DHT22;33995;48.202;16.260;2023-05-07T02:33:16;13.60;99.90
48206;DHT22;33995;48.202;16.260;2023-05-07T02:35:44;13.60;99.90
48206;DHT22;33995;48.202;16.260;2023-05-07T02:38:14;13.60;99.90
48206;DHT22;33995;48.202;16.260;2023-05-07T02:40:43;13.60;99.90
48206;DHT22;33995;48.202;16.260;2023-05-07T02:43:10;13.50;99.90
48206;DHT22;33995;48.202;16.260;2023-05-07T02:45:41;13.50;99.90
48206;DHT22;33995;48.202;16.260;2023-05-07T02:48:09;13.50;99.90
48206;DHT22;33995;48.202;16.260;2023-05-07T02:50:38;13.50;99.90
48206;DHT22;33995;48.202;16.260;2023-05-07T02:53:05;13.50;99.90
48206;DHT22;33995;48.202;16.260;2023-05-07T02:55:34;13.50;99.90
48206;DHT22;33995;48.202;16.260;2023-05-07T02:58:02;13.50;99.90
48206;DHT22;33995;48.202;16.260;2023-05-07T03:00:34;13.50;99.90
48206;DHT22;33995;48.202;16.260;2023-05-07T03:03:28;13.50;99.90
48206;DHT22;33995;48.202;16.260;2023-05-07T03:05:59;13.40;99.90
48206;DHT22;33995;48.202;16.260;2023-05-07T03:08:28;13.40;99.90
48206;DHT22;33995;48.202;16.260;2023-05-07T03:10:55;13.40;99.90
48206;DHT22;33995;48.202;16.260;2023-05-07T03:13:22;13.40;99.90
48206;DHT22;33995;48.202;16.260;2023-05-07T03:15:50;13.50;99.90
48206;DHT22;33995;48.202;16.260;2023-05-07T03:18:18;13.40;99.90
48206;DHT22;33995;48.202;16.260;2023-05-07T03:20:45;13.50;99.90
48206;DHT22;33995;48.202;16.260;2023-05-07T03:23:12;13.40;99.90
48206;DHT22;33995;48.202;16.260;2023-05-07T03:25:42;13.40;99.90
48206;DHT22;33995;48.202;16.260;2023-05-07T03:28:09;13.40;99.90
48206;DHT22;33995;48.202;16.260;2023-05-07T03:30:43;13.50;99.90
48206;DHT22;33995;48.202;16.260;2023-05-07T03:33:10;13.40;99.90
48206;DHT22;33995;48.202;16.260;2023-05-07T03:35:38;13.30;99.90
48206;DHT22;33995;48.202;16.260;2023-05-07T03:38:05;13.30;99.90
48206;DHT22;33995;48.202;16.260;2023-05-07T03:40:35;13.30;99.90
48206;DHT22;33995;48.202;16.260;2023-05-07T03:43:04;13.30;99.90
48206;DHT22;33995;48.202;16.260;2023-05-07T03:45:34;13.30;99.90
48206;DHT22;33995;48.202;16.260;2023-05-07T03:48:11;13.20;99.90
48206;DHT22;33995;48.202;16.260;2023-05-07T03:50:38;13.30;99.90
48206;DHT22;33995;48.202;16.260;2023-05-07T03:53:06;13.30;99.90
48206;DHT22;33995;48.202;16.260;2023-05-07T03:55:38;13.40;99.90
48206;DHT22;33995;48.202;16.260;2023-05-07T03:58:05;13.40;99.90
48206;DHT22;33995;48.202;16.260;2023-05-07T04:00:34;13.40;99.90
48206;DHT22;33995;48.202;16.260;2023-05-07T04:03:17;13.40;99.90
48206;DHT22;33995;48.202;16.260;2023-05-07T04:05:45;13.50;99.90
48206;DHT22;33995;48.202;16.260;2023-05-07T04:08:12;13.50;99.90
48206;DHT22;33995;48.202;16.260;2023-05-07T04:10:45;13.50;99.90
48206;DHT22;33995;48.202;16.260;2023-05-07T04:13:13;13.50;99.90
48206;DHT22;33995;48.202;16.260;2023-05-07T04:15:41;13.60;99.90
48206;DHT22;33995;48.202;16.260;2023-05-07T04:18:11;13.60;99.90
48206;DHT22;33995;48.202;16.260;2023-05-07T04:20:45;13.60;99.90
48206;DHT22;33995;48.202;16.260;2023-05-07T04:23:15;13.60;99.90
48206;DHT22;33995;48.202;16.260;2023-05-07T04:25:42;13.70;99.90
48206;DHT22;33995;48.202;16.260;2023-05-07T04:28:18;13.80;99.90
48206;DHT22;33995;48.202;16.260;2023-05-07T04:30:46;13.80;99.90
48206;DHT22;33995;48.202;16.260;2023-05-07T04:33:14;13.70;99.90
48206;DHT22;33995;48.202;16.260;2023-05-07T04:35:47;13.80;99.90
48206;DHT22;33995;48.202;16.260;2023-05-07T04:38:15;13.80;99.90
48206;DHT22;33995;48.202;16.260;2023-05-07T04:40:42;13.90;99.90
48206;DHT22;33995;48.202;16.260;2023-05-07T04:43:14;13.90;99.90
48206;DHT22;33995;48.202;16.260;2023-05-07T04:45:45;14.00;99.90
48206;DHT22;33995;48.202;16.260;2023-05-07T04:48:12;14.10;99.90
48206;DHT22;33995;48.202;16.260;2023-05-07T04:50:42;14.10;99.90
48206;DHT22;33995;48.202;16.260;2023-05-07T04:53:10;14.10;99.90
48206;DHT22;33995;48.202;16.260;2023-05-07T04:55:45;14.10;99.90
48206;DHT22;33995;48.202;16.260;2023-05-07T04:58:12;14.20;99.90
48206;DHT22;33995;48.202;16.260;2023-05-07T05:00:43;14.20;99.90
48206;DHT22;33995;48.202;16.260;2023-05-07T05:03:10;14.30;99.90
48206;DHT22;33995;48.202;16.260;2023-05-07T05:05:40;14.30;99.90
48206;DHT22;33995;48.202;16.260;2023-05-07T05:08:07;14.40;99.90
48206;DHT22;33995;48.202;16.260;2023-05-07T05:10:37;14.50;99.90
48206;DHT22;33995;48.202;16.260;2023-05-07T05:13:06;14.50;99.90
48206;DHT22;33995;48.202;16.260;2023-05-07T05:15:33;14.60;99.90
48206;DHT22;33995;48.202;16.260;2023-05-07T05:18:01;14.60;99.90
48206;DHT22;33995;48.202;16.260;2023-05-07T05:20:29;14.70;99.90
48206;DHT22;33995;48.202;16.260;2023-05-07T05:22:56;14.50;99.90
48206;DHT22;33995;48.202;16.260;2023-05-07T05:25:23;14.60;99.90
48206;DHT22;33995;48.202;16.260;2023-05-07T05:27:51;14.70;99.90
48206;DHT22;33995;48.202;16.260;2023-05-07T05:30:20;14.80;99.90
48206;DHT22;33995;48.202;16.260;2023-05-07T05:32:50;14.80;99.90
48206;DHT22;33995;48.202;16.260;2023-05-07T05:35:17;14.80;99.90
48206;DHT22;33995;48.202;16.260;2023-05-07T05:37:44;14.90;99.90
48206;DHT22;33995;48.202;16.260;2023-05-07T05:40:11;15.00;99.90
48206;DHT22;33995;48.202;16.260;2023-05-07T05:42:41;15.10;99.90
48206;DHT22;33995;48.202;16.260;2023-05-07T05:45:09;15.10;99.90
48206;DHT22;33995;48.202;16.260;2023-05-07T05:47:37;15.20;99.90
48206;DHT22;33995;48.202;16.260;2023-05-07T05:50:06;15.30;99.90
48206;DHT22;33995;48.202;16.260;2023-05-07T05:52:35;15.30;99.90
48206;DHT22;33995;48.202;16.260;2023-05-07T05:55:06;15.30;99.90
48206;DHT22;33995;48.202;16.260;2023-05-07T05:57:35;15.40;99.90
48206;DHT22;33995;48.202;16.260;2023-05-07T06:00:07;15.40;99.90
48206;DHT22;33995;48.202;16.260;2023-05-07T06:02:46;15.40;99.90
48206;DHT22;33995;48.202;16.260;2023-05-07T06:05:20;15.40;99.90
48206;DHT22;33995;48.202;16.260;2023-05-07T06:07:51;15.40;99.90
48206;DHT22;33995;48.202;16.260;2023-05-07T06:10:19;15.40;99.90
48206;DHT22;33995;48.202;16.260;2023-05-07T06:12:46;15.40;99.90
48206;DHT22;33995;48.202;16.260;2023-05-07T06:15:14;15.50;99.90
48206;DHT22;33995;48.202;16.260;2023-05-07T06:17:41;15.50;99.90
48206;DHT22;33995;48.202;16.260;2023-05-07T06:20:11;15.60;99.90
48206;DHT22;33995;48.202;16.260;2023-05-07T06:22:40;15.70;99.90
48206;DHT22;33995;48.202;16.260;2023-05-07T06:25:09;15.60;99.90
48206;DHT22;33995;48.202;16.260;2023-05-07T06:27:38;15.70;99.90
48206;DHT22;33995;48.202;16.260;2023-05-07T06:30:08;15.50;99.90
48206;DHT22;33995;48.202;16.260;2023-05-07T06:32:39;15.60;99.90
48206;DHT22;33995;48.202;16.260;2023-05-07T06:35:08;15.70;99.90
48206;DHT22;33995;48.202;16.260;2023-05-07T06:37:38;15.80;99.90
48206;DHT22;33995;48.202;16.260;2023-05-07T06:40:08;15.90;99.90
48206;DHT22;33995;48.202;16.260;2023-05-07T06:42:38;16.00;99.90
48206;DHT22;33995;48.202;16.260;2023-05-07T06:45:35;15.90;99.90
48206;DHT22;33995;48.202;16.260;2023-05-07T06:48:03;16.00;99.90
48206;DHT22;33995;48.202;16.260;2023-05-07T06:50:42;16.00;99.90
48206;DHT22;33995;48.202;16.260;2023-05-07T06:53:10;16.10;99.90
48206;DHT22;33995;48.202;16.260;2023-05-07T06:55:39;16.00;99.90
48206;DHT22;33995;48.202;16.260;2023-05-07T06:58:06;16.10;99.90
48206;DHT22;33995;48.202;16.260;2023-05-07T07:00:33;16.00;99.90
48206;DHT22;33995;48.202;16.260;2023-05-07T07:03:01;15.90;99.90
48206;DHT22;33995;48.202;16.260;2023-05-07T07:05:29;16.00;99.90
48206;DHT22;33995;48.202;16.260;2023-05-07T07:07:58;16.10;99.90
48206;DHT22;33995;48.202;16.260;2023-05-07T07:10:25;16.10;99.90
48206;DHT22;33995;48.202;16.260;2023-05-07T07:12:55;16.00;99.90
48206;DHT22;33995;48.202;16.260;2023-05-07T07:15:22;15.90;99.90
48206;DHT22;33995;48.202;16.260;2023-05-07T07:17:53;16.00;99.90
48206;DHT22;33995;48.202;16.260;2023-05-07T07:20:22;16.10;99.90
48206;DHT22;33995;48.202;16.260;2023-05-07T07:22:50;16.20;99.90
48206;DHT22;33995;48.202;16.260;2023-05-07T07:25:20;16.30;99.90
48206;DHT22;33995;48.202;16.260;2023-05-07T07:27:49;16.20;99.90
48206;DHT22;33995;48.202;16.260;2023-05-07T07:30:18;16.30;99.90
48206;DHT22;33995;48.202;16.260;2023-05-07T07:32:48;16.30;99.90
48206;DHT22;33995;48.202;16.260;2023-05-07T07:35:16;16.40;99.90
48206;DHT22;33995;48.202;16.260;2023-05-07T07:37:44;16.40;99.90
48206;DHT22;33995;48.202;16.260;2023-05-07T07:40:15;16.40;99.90
48206;DHT22;33995;48.202;16.260;2023-05-07T07:42:45;16.40;99.90
48206;DHT22;33995;48.202;16.260;2023-05-07T07:45:12;16.50;99.90
48206;DHT22;33995;48.202;16.260;2023-05-07T07:47:44;16.60;99.90
48206;DHT22;33995;48.202;16.260;2023-05-07T07:50:11;16.70;99.90
48206;DHT22;33995;48.202;16.260;2023-05-07T07:52:58;16.60;99.90
48206;DHT22;33995;48.202;16.260;2023-05-07T07:55:28;16.60;99.90
48206;DHT22;33995;48.202;16.260;2023-05-07T07:57:56;16.70;99.90
48206;DHT22;33995;48.202;16.260;2023-05-07T08:00:23;16.80;99.90
48206;DHT22;33995;48.202;16.260;2023-05-07T08:02:54;16.80;99.90
48206;DHT22;33995;48.202;16.260;2023-05-07T08:05:27;16.80;99.90
48206;DHT22;33995;48.202;16.260;2023-05-07T08:07:54;16.90;99.90
48206;DHT22;33995;48.202;16.260;2023-05-07T08:10:27;16.90;99.90
48206;DHT22;33995;48.202;16.260;2023-05-07T08:13:02;16.80;99.90
48206;DHT22;33995;48.202;16.260;2023-05-07T08:15:32;17.00;99.90
48206;DHT22;33995;48.202;16.260;2023-05-07T08:17:59;17.00;99.90
48206;DHT22;33995;48.202;16.260;2023-05-07T08:20:28;17.10;99.90
48206;DHT22;33995;48.202;16.260;2023-05-07T08:22:56;17.10;99.90
48206;DHT22;33995;48.202;16.260;2023-05-07T08:25:25;17.20;99.90
48206;DHT22;33995;48.202;16.260;2023-05-07T08:27:52;17.30;99.90
48206;DHT22;33995;48.202;16.260;2023-05-07T08:30:21;17.40;99.90
48206;DHT22;33995;48.202;16.260;2023-05-07T08:32:48;17.50;99.90
48206;DHT22;33995;48.202;16.260;2023-05-07T08:35:16;17.70;99.90
48206;DHT22;33995;48.202;16.260;2023-05-07T08:37:43;17.70;99.90
48206;DHT22;33995;48.202;16.260;2023-05-07T08:40:11;17.80;99.90
48206;DHT22;33995;48.202;16.260;2023-05-07T08:42:42;17.80;99.90
48206;DHT22;33995;48.202;16.260;2023-05-07T08:45:11;17.80;99.90
48206;DHT22;33995;48.202;16.260;2023-05-07T08:47:54;17.70;99.90
48206;DHT22;33995;48.202;16.260;2023-05-07T08:50:28;17.70;99.90
48206;DHT22;33995;48.202;16.260;2023-05-07T08:52:57;17.60;99.90
48206;DHT22;33995;48.202;16.260;2023-05-07T08:55:24;17.70;99.90
48206;DHT22;33995;48.202;16.260;2023-05-07T08:57:51;17.70;99.90
48206;DHT22;33995;48.202;16.260;2023-05-07T09:00:21;17.80;99.90
48206;DHT22;33995;48.202;16.260;2023-05-07T09:02:53;17.80;99.90
48206;DHT22;33995;48.202;16.260;2023-05-07T09:05:21;17.80;99.90
48206;DHT22;33995;48.202;16.260;2023-05-07T09:07:49;17.80;99.90
48206;DHT22;33995;48.202;16.260;2023-05-07T09:10:22;17.90;99.90
48206;DHT22;33995;48.202;16.260;2023-05-07T09:17:04;18.10;99.90
48206;DHT22;33995;48.202;16.260;2023-05-07T09:23:18;18.30;99.90
48206;DHT22;33995;48.202;16.260;2023-05-07T09:25:48;18.40;99.90
48206;DHT22;33995;48.202;16.260;2023-05-07T09:28:23;18.40;99.90
48206;DHT22;33995;48.202;16.260;2023-05-07T09:30:52;18.30;99.90
48206;DHT22;33995;48.202;16.260;2023-05-07T09:33:20;18.30;99.90
48206;DHT22;33995;48.202;16.260;2023-05-07T09:35:52;18.40;99.90
48206;DHT22;33995;48.202;16.260;2023-05-07T09:38:21;18.30;99.90
48206;DHT22;33995;48.202;16.260;2023-05-07T09:41:15;18.40;99.90
48206;DHT22;33995;48.202;16.260;2023-05-07T09:44:15;18.50;99.90
48206;DHT22;33995;48.202;16.260;2023-05-07T09:46:53;18.70;99.90
48206;DHT22;33995;48.202;16.260;2023-05-07T09:57:36;19.10;99.90
48206;DHT22;33995;48.202;16.260;2023-05-07T10:00:25;19.20;99.90
48206;DHT22;33995;48.202;16.260;2023-05-07T10:03:01;19.00;99.90
48206;DHT22;33995;48.202;16.260;2023-05-07T10:05:42;19.00;99.90
48206;DHT22;33995;48.202;16.260;2023-05-07T10:12:43;19.30;99.90
48206;DHT22;33995;48.202;16.260;2023-05-07T10:15:18;19.50;99.90
48206;DHT22;33995;48.202;16.260;2023-05-07T10:17:51;19.70;99.90
48206;DHT22;33995;48.202;16.260;2023-05-07T10:20:22;19.90;99.90
48206;DHT22;33995;48.202;16.260;2023-05-07T10:23:13;20.10;99.90
48206;DHT22;33995;48.202;16.260;2023-05-07T10:25:45;20.10;99.90
48206;DHT22;33995;48.202;16.260;2023-05-07T10:28:20;20.00;99.90
48206;DHT22;33995;48.202;16.260;2023-05-07T10:33:27;20.40;99.90
48206;DHT22;33995;48.202;16.260;2023-05-07T10:36:02;20.30;99.90
48206;DHT22;33995;48.202;16.260;2023-05-07T10:38:33;20.30;99.90
48206;DHT22;33995;48.202;16.260;2023-05-07T10:41:02;20.30;99.90
48206;DHT22;33995;48.202;16.260;2023-05-07T10:47:25;20.50;99.90
48206;DHT22;33995;48.202;16.260;2023-05-07T11:02:19;20.30;99.90
48206;DHT22;33995;48.202;16.260;2023-05-07T11:05:24;20.30;99.90
48206;DHT22;33995;48.202;16.260;2023-05-07T11:08:10;20.10;99.90
48206;DHT22;33995;48.202;16.260;2023-05-07T11:10:54;20.00;99.90
48206;DHT22;33995;48.202;16.260;2023-05-07T11:13:54;20.00;99.90
48206;DHT22;33995;48.202;16.260;2023-05-07T11:16:43;20.00;99.90
48206;DHT22;33995;48.202;16.260;2023-05-07T11:19:53;20.30;99.90
48206;DHT22;33995;48.202;16.260;2023-05-07T11:22:57;20.40;99.90
48206;DHT22;33995;48.202;16.260;2023-05-07T11:25:35;20.30;99.90
48206;DHT22;33995;48.202;16.260;2023-05-07T11:28:19;20.20;99.90
48206;DHT22;33995;48.202;16.260;2023-05-07T11:31:00;20.30;99.90
48206;DHT22;33995;48.202;16.260;2023-05-07T11:33:34;20.40;99.90
48206;DHT22;33995;48.202;16.260;2023-05-07T11:36:05;20.30;99.90
48206;DHT22;33995;48.202;16.260;2023-05-07T11:38:52;20.30;99.90
48206;DHT22;33995;48.202;16.260;2023-05-07T11:41:19;20.50;99.90
48206;DHT22;33995;48.202;16.260;2023-05-07T11:47:18;20.50;99.90
48206;DHT22;33995;48.202;16.260;2023-05-07T11:53:38;20.50;99.90
48206;DHT22;33995;48.202;16.260;2023-05-07T11:56:13;20.70;99.90
48206;DHT22;33995;48.202;16.260;2023-05-07T11:58:43;20.80;99.90
48206;DHT22;33995;48.202;16.260;2023-05-07T12:01:36;20.90;99.90
48206;DHT22;33995;48.202;16.260;2023-05-07T12:04:04;21.00;99.90
48206;DHT22;33995;48.202;16.260;2023-05-07T12:06:36;21.10;99.90
48206;DHT22;33995;48.202;16.260;2023-05-07T12:09:06;21.10;99.90
48206;DHT22;33995;48.202;16.260;2023-05-07T12:11:46;21.10;99.90
48206;DHT22;33995;48.202;16.260;2023-05-07T12:14:50;21.10;99.90
48206;DHT22;33995;48.202;16.260;2023-05-07T12:17:18;20.70;99.90
48206;DHT22;33995;48.202;16.260;2023-05-07T12:19:46;20.60;99.90
48206;DHT22;33995;48.202;16.260;2023-05-07T12:22:15;20.40;99.90
48206;DHT22;33995;48.202;16.260;2023-05-07T12:24:46;20.40;99.90
48206;DHT22;33995;48.202;16.260;2023-05-07T12:27:15;20.40;99.90
48206;DHT22;33995;48.202;16.260;2023-05-07T12:29:50;20.20;99.90
48206;DHT22;33995;48.202;16.260;2023-05-07T12:32:19;20.10;99.90
48206;DHT22;33995;48.202;16.260;2023-05-07T12:34:51;20.10;99.90
48206;DHT22;33995;48.202;16.260;2023-05-07T12:37:41;20.10;99.90
48206;DHT22;33995;48.202;16.260;2023-05-07T12:40:10;20.10;99.90
48206;DHT22;33995;48.202;16.260;2023-05-07T12:42:59;20.30;99.90
48206;DHT22;33995;48.202;16.260;2023-05-07T12:45:27;20.50;99.90
48206;DHT22;33995;48.202;16.260;2023-05-07T12:47:55;20.70;99.90
48206;DHT22;33995;48.202;16.260;2023-05-07T12:50:23;20.70;99.90
48206;DHT22;33995;48.202;16.260;2023-05-07T12:53:12;20.70;99.90
48206;DHT22;33995;48.202;16.260;2023-05-07T12:55:50;20.60;99.90
48206;DHT22;33995;48.202;16.260;2023-05-07T12:58:20;20.50;99.90
48206;DHT22;33995;48.202;16.260;2023-05-07T13:00:49;20.40;99.90
48206;DHT22;33995;48.202;16.260;2023-05-07T13:06:11;20.30;99.90
48206;DHT22;33995;48.202;16.260;2023-05-07T13:13:01;20.30;99.90
48206;DHT22;33995;48.202;16.260;2023-05-07T13:15:29;20.40;99.90
48206;DHT22;33995;48.202;16.260;2023-05-07T13:17:56;20.40;99.90
48206;DHT22;33995;48.202;16.260;2023-05-07T13:20:24;20.50;99.90
48206;DHT22;33995;48.202;16.260;2023-05-07T13:22:51;20.40;99.90
48206;DHT22;33995;48.202;16.260;2023-05-07T13:25:21;20.30;99.90
48206;DHT22;33995;48.202;16.260;2023-05-07T13:32:13;20.20;99.90
48206;DHT22;33995;48.202;16.260;2023-05-07T13:34:42;20.30;99.90
48206;DHT22;33995;48.202;16.260;2023-05-07T13:37:09;20.10;99.90
48206;DHT22;33995;48.202;16.260;2023-05-07T13:39:39;20.00;99.90
48206;DHT22;33995;48.202;16.260;2023-05-07T13:43:36;19.80;99.90
48206;DHT22;33995;48.202;16.260;2023-05-07T13:46:06;19.90;99.90
48206;DHT22;33995;48.202;16.260;2023-05-07T13:55:57;20.00;99.90
48206;DHT22;33995;48.202;16.260;2023-05-07T13:58:50;20.10;99.90
48206;DHT22;33995;48.202;16.260;2023-05-07T14:01:26;20.30;99.90
48206;DHT22;33995;48.202;16.260;2023-05-07T14:03:55;20.30;99.90
48206;DHT22;33995;48.202;16.260;2023-05-07T14:06:22;20.20;99.90
48206;DHT22;33995;48.202;16.260;2023-05-07T14:08:50;20.10;99.90
48206;DHT22;33995;48.202;16.260;2023-05-07T14:11:17;20.10;99.90
48206;DHT22;33995;48.202;16.260;2023-05-07T14:13:44;20.10;99.90
48206;DHT22;33995;48.202;16.260;2023-05-07T14:16:11;20.20;99.90
48206;DHT22;33995;48.202;16.260;2023-05-07T14:18:38;20.20;99.90
48206;DHT22;33995;48.202;16.260;2023-05-07T14:21:06;20.30;99.90
48206;DHT22;33995;48.202;16.260;2023-05-07T14:23:36;20.20;99.90
48206;DHT22;33995;48.202;16.260;2023-05-07T14:26:03;20.20;99.90
48206;DHT22;33995;48.202;16.260;2023-05-07T14:28:30;20.20;99.90
48206;DHT22;33995;48.202;16.260;2023-05-07T14:30:57;20.10;99.90
48206;DHT22;33995;48.202;16.260;2023-05-07T14:33:27;20.10;99.90
48206;DHT22;33995;48.202;16.260;2023-05-07T14:35:54;20.10;99.90
48206;DHT22;33995;48.202;16.260;2023-05-07T14:38:21;20.00;99.90
48206;DHT22;33995;48.202;16.260;2023-05-07T14:40:48;19.90;99.90
48206;DHT22;33995;48.202;16.260;2023-05-07T14:43:17;19.90;99.90
48206;DHT22;33995;48.202;16.260;2023-05-07T14:45:46;20.00;99.90
48206;DHT22;33995;48.202;16.260;2023-05-07T14:48:13;20.10;99.90
48206;DHT22;33995;48.202;16.260;2023-05-07T14:50:42;19.90;99.90
48206;DHT22;33995;48.202;16.260;2023-05-07T14:53:09;19.90;99.90
48206;DHT22;33995;48.202;16.260;2023-05-07T14:55:36;19.90;99.90
48206;DHT22;33995;48.202;16.260;2023-05-07T14:58:03;19.80;99.90
48206;DHT22;33995;48.202;16.260;2023-05-07T15:00:30;19.70;99.90
48206;DHT22;33995;48.202;16.260;2023-05-07T15:03:06;19.60;99.90
48206;DHT22;33995;48.202;16.260;2023-05-07T15:05:35;19.40;99.90
48206;DHT22;33995;48.202;16.260;2023-05-07T15:08:03;19.40;99.90
48206;DHT22;33995;48.202;16.260;2023-05-07T15:10:30;19.40;99.90
48206;DHT22;33995;48.202;16.260;2023-05-07T15:12:57;19.40;99.90
48206;DHT22;33995;48.202;16.260;2023-05-07T15:15:25;19.40;99.90
48206;DHT22;33995;48.202;16.260;2023-05-07T15:17:54;19.30;99.90
48206;DHT22;33995;48.202;16.260;2023-05-07T15:20:20;19.40;99.90
48206;DHT22;33995;48.202;16.260;2023-05-07T15:22:47;19.40;99.90
48206;DHT22;33995;48.202;16.260;2023-05-07T15:25:14;19.40;99.90
48206;DHT22;33995;48.202;16.260;2023-05-07T15:27:42;19.30;99.90
48206;DHT22;33995;48.202;16.260;2023-05-07T15:30:10;19.30;99.90
48206;DHT22;33995;48.202;16.260;2023-05-07T15:32:42;19.40;99.90
48206;DHT22;33995;48.202;16.260;2023-05-07T15:35:09;19.30;99.90
48206;DHT22;33995;48.202;16.260;2023-05-07T15:37:38;19.20;99.90
48206;DHT22;33995;48.202;16.260;2023-05-07T15:40:06;19.10;99.90
48206;DHT22;33995;48.202;16.260;2023-05-07T15:42:34;19.10;99.90
48206;DHT22;33995;48.202;16.260;2023-05-07T15:45:02;19.10;99.90
48206;DHT22;33995;48.202;16.260;2023-05-07T15:47:33;19.10;99.90
48206;DHT22;33995;48.202;16.260;2023-05-07T15:50:03;19.10;99.90
48206;DHT22;33995;48.202;16.260;2023-05-07T15:52:31;18.90;99.90
48206;DHT22;33995;48.202;16.260;2023-05-07T15:55:00;18.80;99.90
48206;DHT22;33995;48.202;16.260;2023-05-07T15:57:29;18.80;99.90
48206;DHT22;33995;48.202;16.260;2023-05-07T15:59:58;18.80;99.90
48206;DHT22;33995;48.202;16.260;2023-05-07T16:02:26;18.80;99.90
48206;DHT22;33995;48.202;16.260;2023-05-07T16:05:02;18.70;99.90
48206;DHT22;33995;48.202;16.260;2023-05-07T16:07:30;18.70;99.90
48206;DHT22;33995;48.202;16.260;2023-05-07T16:09:57;18.50;99.90
48206;DHT22;33995;48.202;16.260;2023-05-07T16:12:27;18.50;99.90
48206;DHT22;33995;48.202;16.260;2023-05-07T16:14:55;18.50;99.90
48206;DHT22;33995;48.202;16.260;2023-05-07T16:17:25;18.50;99.90
48206;DHT22;33995;48.202;16.260;2023-05-07T16:19:56;18.40;99.90
48206;DHT22;33995;48.202;16.260;2023-05-07T16:22:25;18.20;99.90
48206;DHT22;33995;48.202;16.260;2023-05-07T16:24:53;18.10;99.90
48206;DHT22;33995;48.202;16.260;2023-05-07T16:27:21;18.10;99.90
48206;DHT22;33995;48.202;16.260;2023-05-07T16:29:49;18.20;99.90
48206;DHT22;33995;48.202;16.260;2023-05-07T16:32:16;18.30;99.90
48206;DHT22;33995;48.202;16.260;2023-05-07T16:34:44;18.20;99.90
48206;DHT22;33995;48.202;16.260;2023-05-07T16:37:12;18.10;99.90
48206;DHT22;33995;48.202;16.260;2023-05-07T16:39:40;18.00;99.90
48206;DHT22;33995;48.202;16.260;2023-05-07T16:42:08;17.80;99.90
48206;DHT22;33995;48.202;16.260;2023-05-07T16:44:35;17.80;99.90